Trefriw, United Kingdom
Current Conditions -  °F | °C
As of 10:50 AM on Friday 19 Dec 2014 (Local Time) from EGOV Reporting Station
Scattered Clouds Scattered Clouds  
Wind Chill: 38°   Ceiling: Unl
Heat Index: 46°   Visibility: 6mi
Dew Point: 36°   Wind: 24mph
Humidity: 66%   Direction: 260°W
Pressure: 29.94"   Gusts: NA
Location:  53.13°N, 3.81°W
Report Text: EGOV 191050Z 26021KT 9999 SCT028 08/02 Q1014 BLU NOSIG
Loading
Personal Weather Stations






























Interactive Weather Map New forecast layout! Learn more

10-Day Weather Forecast

Advertisements
Track Severe Weather on mobile